createdAt,value
2016-08-16T00:00:00.320Z,58.45
2016-08-16T00:01:00.301Z,58.62
2016-08-16T00:02:00.284Z,58.52
2016-08-16T00:03:00.273Z,58.42
2016-08-16T00:04:00.256Z,58.55
2016-08-16T00:05:00.241Z,58.42
2016-08-16T00:06:00.225Z,58.45
2016-08-16T00:07:00.210Z,58.62
2016-08-16T00:08:00.189Z,58.52
2016-08-16T00:09:00.173Z,58.55
2016-08-16T00:10:00.156Z,58.45
2016-08-16T00:11:00.147Z,58.62
2016-08-16T00:12:00.125Z,58.55
2016-08-16T00:13:00.104Z,58.72
2016-08-16T00:14:00.105Z,59
2016-08-16T00:15:00.070Z,58.72
2016-08-16T00:16:00.059Z,58.33
2016-08-16T00:17:00.045Z,58.65
2016-08-16T00:18:00.025Z,58.75
2016-08-16T00:19:00.011Z,58.52
2016-08-16T00:19:59.994Z,58.91
2016-08-16T00:20:59.976Z,58.42
2016-08-16T00:21:59.964Z,58.72
2016-08-16T00:22:59.949Z,59.32
2016-08-16T00:23:59.931Z,59.2
2016-08-16T00:24:59.913Z,58.84
2016-08-16T00:25:59.901Z,59
2016-08-16T00:26:59.882Z,59.61
2016-08-16T00:27:59.860Z,59.1
2016-08-16T00:28:59.855Z,59.03
2016-08-16T00:29:59.834Z,58.94
2016-08-16T00:30:59.823Z,59.13
2016-08-16T00:31:59.802Z,58.94
2016-08-16T00:32:59.785Z,59.39
2016-08-16T00:33:59.765Z,59.39
2016-08-16T00:34:59.750Z,59.39
2016-08-16T00:35:59.742Z,59.42
2016-08-16T00:36:59.719Z,59.42
2016-08-16T00:37:59.709Z,59.32
2016-08-16T00:38:59.688Z,59.1
2016-08-16T00:39:58.962Z,59.39
2016-08-16T00:40:59.654Z,59.13
2016-08-16T00:41:59.645Z,59.2
2016-08-16T00:42:59.620Z,59.2
2016-08-16T00:43:59.607Z,59.2
2016-08-16T00:44:59.594Z,59.32
2016-08-16T00:45:59.570Z,59.23
2016-08-16T00:46:59.559Z,59.32
2016-08-16T00:47:59.541Z,59.03
2016-08-16T00:48:59.527Z,59.13
2016-08-16T00:49:59.508Z,59.71
2016-08-16T00:50:59.492Z,59.32
2016-08-16T00:51:59.476Z,59.61
2016-08-16T00:52:59.466Z,60
2016-08-16T00:53:59.451Z,59.52
2016-08-16T00:54:59.427Z,59.42
2016-08-16T00:55:59.413Z,59.39
2016-08-16T00:56:59.398Z,59.32
2016-08-16T00:57:59.381Z,59.61
2016-08-16T00:58:59.365Z,59.68
2016-08-16T00:59:59.347Z,59.32
2016-08-16T01:00:59.332Z,59.32
2016-08-16T01:01:59.319Z,59.32
2016-08-16T01:02:59.298Z,59.61
2016-08-16T01:03:59.286Z,59.9
2016-08-16T01:04:59.263Z,59.68
2016-08-16T01:05:58.543Z,59.71
2016-08-16T01:06:59.241Z,59.8
2016-08-16T01:07:59.217Z,59.61
2016-08-16T01:08:59.207Z,59.71
2016-08-16T01:09:59.195Z,59.52
2016-08-16T01:10:59.169Z,59.61
2016-08-16T01:11:59.150Z,59.71
2016-08-16T01:12:59.139Z,59.68
2016-08-16T01:13:59.118Z,59.42
2016-08-16T01:14:58.398Z,59.52
2016-08-16T01:15:59.085Z,59.71
2016-08-16T01:16:59.070Z,59.71
2016-08-16T01:17:59.051Z,59.71
2016-08-16T01:18:59.046Z,59.42
2016-08-16T01:19:59.026Z,59.71
2016-08-16T01:20:58.303Z,59.71
2016-08-16T01:21:58.280Z,59.71
2016-08-16T01:22:58.975Z,59.48
2016-08-16T01:23:58.254Z,59.52
2016-08-16T01:24:58.945Z,59.52
2016-08-16T01:25:58.939Z,59.52
2016-08-16T01:26:58.910Z,59.52
2016-08-16T01:27:58.899Z,59.48
2016-08-16T01:28:58.878Z,59.61
2016-08-16T01:29:58.865Z,59.58
2016-08-16T01:30:58.848Z,59.58
2016-08-16T01:31:58.839Z,59.68
2016-08-16T01:32:58.820Z,59.61
2016-08-16T01:33:58.093Z,59.52
2016-08-16T01:34:58.785Z,59.68
2016-08-16T01:35:58.764Z,59.71
2016-08-16T01:36:58.043Z,59.48
2016-08-16T01:37:58.735Z,59.78
2016-08-16T01:38:58.724Z,59.58
2016-08-16T01:39:58.703Z,59.71
2016-08-16T01:40:58.689Z,59.71
2016-08-16T01:41:58.673Z,60.06
2016-08-16T01:42:58.655Z,59.78
2016-08-16T01:43:58.638Z,59.87
2016-08-16T01:44:58.627Z,59.78
2016-08-16T01:45:58.612Z,59.48
2016-08-16T01:46:58.590Z,59.58
2016-08-16T01:47:58.576Z,59.71
2016-08-16T01:48:58.552Z,59.68
2016-08-16T01:49:58.541Z,59.52
2016-08-16T01:50:57.818Z,59.61
2016-08-16T01:51:58.513Z,59.58
2016-08-16T01:52:58.495Z,59.78
2016-08-16T01:53:58.483Z,59.61
2016-08-16T01:54:58.460Z,59.48
2016-08-16T01:55:58.445Z,59.48
2016-08-16T01:56:58.434Z,59.61
2016-08-16T01:57:58.417Z,59.52
2016-08-16T01:58:58.396Z,59.48
2016-08-16T01:59:58.383Z,59.39
2016-08-16T02:00:58.361Z,59.71
2016-08-16T02:01:58.352Z,59.8
2016-08-16T02:02:58.335Z,59.71
2016-08-16T02:03:58.316Z,59.9
2016-08-16T02:04:58.308Z,60.35
2016-08-16T02:05:58.284Z,60.06
2016-08-16T02:06:58.273Z,60.55
2016-08-16T02:07:58.251Z,60.45
2016-08-16T02:08:58.232Z,60.58
2016-08-16T02:09:58.219Z,59.97
2016-08-16T02:10:58.205Z,60.45
2016-08-16T02:11:58.186Z,60.48
2016-08-16T02:12:58.167Z,60.28
2016-08-16T02:13:58.154Z,60.16
2016-08-16T02:14:58.139Z,60.19
2016-08-16T02:15:58.127Z,60.16
2016-08-16T02:16:58.108Z,60.28
2016-08-16T02:17:58.088Z,59.97
2016-08-16T02:18:58.078Z,59.97
2016-08-16T02:19:58.060Z,59.97
2016-08-16T02:20:58.042Z,59.97
2016-08-16T02:21:58.024Z,60.1
2016-08-16T02:22:58.012Z,60.16
2016-08-16T02:23:57.987Z,60.38
2016-08-16T02:24:57.978Z,60.16
2016-08-16T02:25:57.962Z,60.28
2016-08-16T02:26:57.943Z,60.28
2016-08-16T02:27:57.925Z,60.1
2016-08-16T02:28:57.913Z,60.45
2016-08-16T02:29:57.899Z,60.19
2016-08-16T02:30:57.879Z,60.38
2016-08-16T02:31:57.862Z,60.28
2016-08-16T02:32:57.849Z,60.06
2016-08-16T02:33:57.839Z,59.87
2016-08-16T02:34:57.817Z,60.26
2016-08-16T02:35:57.805Z,60.35
2016-08-16T02:36:57.785Z,60.26
2016-08-16T02:37:57.766Z,59.87
2016-08-16T02:38:57.749Z,60.16
2016-08-16T02:39:57.738Z,60.1
2016-08-16T02:40:57.725Z,60.26
2016-08-16T02:41:57.706Z,60.55
2016-08-16T02:42:57.689Z,59.87
2016-08-16T02:43:57.669Z,60.06
2016-08-16T02:44:57.654Z,60.55
2016-08-16T02:45:57.639Z,60.45
2016-08-16T02:46:57.631Z,60.06
2016-08-16T02:47:57.600Z,60.1
2016-08-16T02:48:57.588Z,60.06
2016-08-16T02:49:57.573Z,60.16
2016-08-16T02:50:57.558Z,59.97
2016-08-16T02:51:57.540Z,60.06
2016-08-16T02:52:57.528Z,60.06
2016-08-16T02:53:57.507Z,59.97
2016-08-16T02:54:57.496Z,60.38
2016-08-16T02:55:57.478Z,60.06
2016-08-16T02:56:57.459Z,60.16
2016-08-16T02:57:57.441Z,60.06
2016-08-16T02:58:57.443Z,59.97
2016-08-16T02:59:57.413Z,59.97
2016-08-16T03:00:57.397Z,60.35
2016-08-16T03:01:57.382Z,60.48
2016-08-16T03:02:57.366Z,60.06
2016-08-16T03:03:57.344Z,60.06
2016-08-16T03:04:57.326Z,60.06
2016-08-16T03:05:57.319Z,60.16
2016-08-16T03:06:56.595Z,60.16
2016-08-16T03:07:57.284Z,60.06
2016-08-16T03:08:57.270Z,60.06
2016-08-16T03:09:57.253Z,59.87
2016-08-16T03:10:57.229Z,60.06
2016-08-16T03:11:57.221Z,60.06
2016-08-16T03:12:57.202Z,60.06
2016-08-16T03:13:57.184Z,60.16
2016-08-16T03:14:57.164Z,60.16
2016-08-16T03:15:57.150Z,59.97
2016-08-16T03:16:57.135Z,60.16
2016-08-16T03:17:57.126Z,60.16
2016-08-16T03:18:57.112Z,60.06
2016-08-16T03:19:57.087Z,60.16
2016-08-16T03:20:56.364Z,60.35
2016-08-16T03:21:57.053Z,60.35
2016-08-16T03:22:57.038Z,59.87
2016-08-16T03:23:57.023Z,59.87
2016-08-16T03:24:57.015Z,60.74
2016-08-16T03:25:56.992Z,60.64
2016-08-16T03:26:56.977Z,60.45
2016-08-16T03:27:56.952Z,60.26
2016-08-16T03:28:56.940Z,60.35
2016-08-16T03:29:56.927Z,60.26
2016-08-16T03:30:56.908Z,60.06
2016-08-16T03:31:57.108Z,60.16
2016-08-16T03:32:56.873Z,60.16
2016-08-16T03:33:56.864Z,60.16
2016-08-16T03:34:56.853Z,60.16
2016-08-16T03:35:56.834Z,60.06
2016-08-16T03:36:56.103Z,60.06
2016-08-16T03:37:56.798Z,60.16
2016-08-16T03:38:56.777Z,60.35
2016-08-16T03:39:56.762Z,60.16
2016-08-16T03:40:56.744Z,60.16
2016-08-16T03:41:56.732Z,60.16
2016-08-16T03:42:56.011Z,60.19
2016-08-16T03:43:56.696Z,60.16
2016-08-16T03:44:56.687Z,60.06
2016-08-16T03:45:56.664Z,60.35
2016-08-16T03:46:56.652Z,60.26
2016-08-16T03:47:56.638Z,60.06
2016-08-16T03:48:56.625Z,60.16
2016-08-16T03:49:56.603Z,60.16
2016-08-16T03:50:56.587Z,59.97
2016-08-16T03:51:56.566Z,60.16
2016-08-16T03:52:56.553Z,60.06
2016-08-16T03:53:56.540Z,60.06
2016-08-16T03:54:56.524Z,60.16
2016-08-16T03:55:56.508Z,60.26
2016-08-16T03:56:56.487Z,60.55
2016-08-16T03:57:56.473Z,60.45
2016-08-16T03:58:56.471Z,60.45
2016-08-16T03:59:56.438Z,60.55
2016-08-16T04:00:56.430Z,59.97
2016-08-16T04:01:56.410Z,60.16
2016-08-16T04:02:56.389Z,60.45
2016-08-16T04:03:55.664Z,60.45
2016-08-16T04:04:56.358Z,60.06
2016-08-16T04:05:56.341Z,60.35
2016-08-16T04:06:56.332Z,60.35
2016-08-16T04:07:56.324Z,60.45
2016-08-16T04:08:56.308Z,60.06
2016-08-16T04:09:56.279Z,60.16
2016-08-16T04:10:56.266Z,60.26
2016-08-16T04:11:56.251Z,59.97
2016-08-16T04:12:56.226Z,60.45
2016-08-16T04:13:56.212Z,60.16
2016-08-16T04:14:56.196Z,60.06
2016-08-16T04:15:56.181Z,60.16
2016-08-16T04:16:56.164Z,60.06
2016-08-16T04:17:56.157Z,59.97
2016-08-16T04:18:56.132Z,60.26
2016-08-16T04:19:56.122Z,60.45
2016-08-16T04:20:56.105Z,60.26
2016-08-16T04:21:56.084Z,59.97
2016-08-16T04:22:56.067Z,60.16
2016-08-16T04:23:56.050Z,59.87
2016-08-16T04:24:56.034Z,59.97
2016-08-16T04:25:56.019Z,60.06
2016-08-16T04:26:56.004Z,60.06
2016-08-16T04:27:55.993Z,60.16
2016-08-16T04:28:55.969Z,60.06
2016-08-16T04:29:55.954Z,60.06
2016-08-16T04:30:55.951Z,59.97
2016-08-16T04:31:55.919Z,60.06
2016-08-16T04:32:55.905Z,60.45
2016-08-16T04:33:55.888Z,60.16
2016-08-16T04:34:55.868Z,60.06
2016-08-16T04:35:55.857Z,60.06
2016-08-16T04:36:55.846Z,59.97
2016-08-16T04:37:55.826Z,59.97
2016-08-16T04:38:55.096Z,60.55
2016-08-16T04:39:55.792Z,60.06
2016-08-16T04:40:55.777Z,60.45
2016-08-16T04:41:55.768Z,60.45
2016-08-16T04:42:55.744Z,59.97
2016-08-16T04:43:55.731Z,60.35
2016-08-16T04:44:55.708Z,60.45
2016-08-16T04:45:55.697Z,59.97
2016-08-16T04:46:55.680Z,60.45
2016-08-16T04:47:55.662Z,60.06
2016-08-16T04:48:55.653Z,59.87
2016-08-16T04:49:55.632Z,60.35
2016-08-16T04:50:55.614Z,60.35
2016-08-16T04:51:55.599Z,60.06
2016-08-16T04:52:55.584Z,60.45
2016-08-16T04:53:55.567Z,60.26
2016-08-16T04:54:55.552Z,60.26
2016-08-16T04:55:55.532Z,60.16
2016-08-16T04:56:54.808Z,60.06
2016-08-16T04:57:55.500Z,60.16
2016-08-16T04:58:55.490Z,60.55
2016-08-16T04:59:55.468Z,60.06
2016-08-16T05:00:55.451Z,60.26
2016-08-16T05:01:55.435Z,60.26
2016-08-16T05:02:54.711Z,60.16
2016-08-16T05:03:55.407Z,60.06
2016-08-16T05:04:55.386Z,60.55
2016-08-16T05:05:55.371Z,60.06
2016-08-16T05:06:55.360Z,60.16
2016-08-16T05:07:55.337Z,60.35
2016-08-16T05:08:55.318Z,60.06
2016-08-16T05:09:55.313Z,59.87
2016-08-16T05:10:55.289Z,60.16
2016-08-16T05:11:55.276Z,60.83
2016-08-16T05:12:55.258Z,60.83
2016-08-16T05:13:55.237Z,61.03
2016-08-16T05:14:55.224Z,61.03
2016-08-16T05:15:55.209Z,60.83
2016-08-16T05:16:55.195Z,61.03
2016-08-16T05:17:55.175Z,60.93
2016-08-16T05:18:55.162Z,60.83
2016-08-16T05:19:55.141Z,60.35
2016-08-16T05:20:54.425Z,60.26
2016-08-16T05:21:55.113Z,60.06
2016-08-16T05:22:55.100Z,60.16
2016-08-16T05:23:55.074Z,60.16
2016-08-16T05:24:54.356Z,60.35
2016-08-16T05:25:55.039Z,60.06
2016-08-16T05:26:55.030Z,60.35
2016-08-16T05:27:55.016Z,60.35
2016-08-16T05:28:54.994Z,60.16
2016-08-16T05:29:54.983Z,60.16
2016-08-16T05:30:54.253Z,60.06
2016-08-16T05:31:54.948Z,60.26
2016-08-16T05:32:54.932Z,60.06
2016-08-16T05:33:54.923Z,60.16
2016-08-16T05:34:54.185Z,60.06
2016-08-16T05:35:54.176Z,60.06
2016-08-16T05:36:54.864Z,60.35
2016-08-16T05:37:54.144Z,60.55
2016-08-16T05:38:54.835Z,60.35
2016-08-16T05:39:54.814Z,60.55
2016-08-16T05:40:54.799Z,60.16
2016-08-16T05:41:54.782Z,60.06
2016-08-16T05:42:54.062Z,60.55
2016-08-16T05:43:54.756Z,59.87
2016-08-16T05:44:54.735Z,60.06
2016-08-16T05:45:54.724Z,60.16
2016-08-16T05:46:54.703Z,59.78
2016-08-16T05:47:54.686Z,59.87
2016-08-16T05:48:54.667Z,59.78
2016-08-16T05:49:54.663Z,59.68
2016-08-16T05:50:54.645Z,59.78
2016-08-16T05:51:54.621Z,59.78
2016-08-16T05:52:54.604Z,59.68
2016-08-16T05:53:54.594Z,59.68
2016-08-16T05:54:54.573Z,59.58
2016-08-16T05:55:54.563Z,59.58
2016-08-16T05:56:54.540Z,59.48
2016-08-16T05:57:54.531Z,59.68
2016-08-16T05:58:54.512Z,59.58
2016-08-16T05:59:54.543Z,59.48
2016-08-16T06:00:54.474Z,59.48
2016-08-16T06:01:54.464Z,59.58
2016-08-16T06:02:54.437Z,59.58
2016-08-16T06:03:54.429Z,59.68
2016-08-16T06:04:54.403Z,59.68
2016-08-16T06:05:54.406Z,59.48
2016-08-16T06:06:53.677Z,59.68
2016-08-16T06:07:54.366Z,59.78
2016-08-16T06:08:54.354Z,59.58
2016-08-16T06:09:54.334Z,59.68
2016-08-16T06:10:53.601Z,59.68
2016-08-16T06:11:54.295Z,59.68
2016-08-16T06:12:54.497Z,59.87
2016-08-16T06:13:53.561Z,59.68
2016-08-16T06:14:54.249Z,59.68
2016-08-16T06:15:54.236Z,59.58
2016-08-16T06:16:54.210Z,59.87
2016-08-16T06:17:54.201Z,59.48
2016-08-16T06:18:54.181Z,59.3
2016-08-16T06:19:54.161Z,59.48
2016-08-16T06:20:54.149Z,59.48
2016-08-16T06:21:54.138Z,59.3
2016-08-16T06:22:54.116Z,59.2
2016-08-16T06:23:54.102Z,59.2
2016-08-16T06:24:54.088Z,59.39
2016-08-16T06:25:54.068Z,59.39
2016-08-16T06:26:54.052Z,59.48
2016-08-16T06:27:54.037Z,59.48
2016-08-16T06:28:54.015Z,59.39
2016-08-16T06:29:54.003Z,59.68
2016-08-16T06:30:53.993Z,59.1
2016-08-16T06:31:53.979Z,59.1
2016-08-16T06:32:53.953Z,59.2
2016-08-16T06:33:53.939Z,59.2
2016-08-16T06:34:53.924Z,59.39
2016-08-16T06:35:53.905Z,59.2
2016-08-16T06:36:53.885Z,59.2
2016-08-16T06:37:53.872Z,59.39
2016-08-16T06:38:53.853Z,59.39
2016-08-16T06:39:53.131Z,59.1
2016-08-16T06:40:53.817Z,59.3
2016-08-16T06:41:53.812Z,59
2016-08-16T06:42:53.790Z,59.3
2016-08-16T06:43:53.776Z,58.91
2016-08-16T06:44:53.759Z,59.78
2016-08-16T06:45:53.753Z,59
2016-08-16T06:46:53.729Z,58.81
2016-08-16T06:47:53.704Z,59.2
2016-08-16T06:48:53.699Z,59
2016-08-16T06:49:53.669Z,59.1
2016-08-16T06:50:53.655Z,59
2016-08-16T06:51:53.648Z,59.39
2016-08-16T06:52:53.637Z,59.39
2016-08-16T06:53:53.618Z,59
2016-08-16T06:54:53.604Z,58.91
2016-08-16T06:55:53.581Z,59.2
2016-08-16T06:56:53.568Z,59.1
2016-08-16T06:57:53.553Z,58.91
2016-08-16T06:58:53.536Z,58.81
2016-08-16T06:59:53.523Z,58.81
2016-08-16T07:00:53.503Z,58.72
2016-08-16T07:01:53.492Z,58.81
2016-08-16T07:02:53.466Z,58.52
2016-08-16T07:03:53.451Z,57.94
2016-08-16T07:04:52.721Z,58.42
2016-08-16T07:05:53.416Z,58.81
2016-08-16T07:06:53.398Z,58.91
2016-08-16T07:07:53.391Z,59.07
2016-08-16T07:08:53.372Z,58.3
2016-08-16T07:09:53.350Z,59.36
2016-08-16T07:10:53.336Z,59.36
2016-08-16T07:11:53.317Z,58.91
2016-08-16T07:12:53.305Z,58.72
2016-08-16T07:13:53.295Z,58.72
2016-08-16T07:14:53.270Z,58.72
2016-08-16T07:15:53.253Z,58.62
2016-08-16T07:16:53.240Z,58.52
2016-08-16T07:17:53.218Z,58.52
2016-08-16T07:18:53.207Z,58.33
2016-08-16T07:19:53.189Z,58.52
2016-08-16T07:20:53.173Z,59.2
2016-08-16T07:21:53.155Z,59.39
2016-08-16T07:22:53.139Z,58.23
2016-08-16T07:23:53.121Z,58.91
2016-08-16T07:24:53.104Z,59.68
2016-08-16T07:25:53.089Z,59.39
2016-08-16T07:26:53.079Z,59.78
2016-08-16T07:27:53.056Z,59.78
2016-08-16T07:28:53.048Z,58.72
2016-08-16T07:29:53.031Z,59.36
2016-08-16T07:30:53.009Z,58.69
2016-08-16T07:31:52.994Z,58.52
2016-08-16T07:32:52.977Z,58.72
2016-08-16T07:33:52.964Z,58.72
2016-08-16T07:34:52.948Z,59.39
2016-08-16T07:35:52.938Z,58.69
2016-08-16T07:36:52.921Z,58.72
2016-08-16T07:37:52.896Z,58.04
2016-08-16T07:38:52.879Z,58.42
2016-08-16T07:39:52.859Z,57.56
2016-08-16T07:40:52.842Z,57.75
2016-08-16T07:41:52.835Z,57.72
2016-08-16T07:42:52.811Z,58.11
2016-08-16T07:43:52.803Z,58.01
2016-08-16T07:44:52.787Z,58.37
2016-08-16T07:45:52.767Z,58.75
2016-08-16T07:46:52.746Z,58.65
2016-08-16T07:47:52.737Z,58.37
2016-08-16T07:48:52.717Z,57.53
2016-08-16T07:49:52.701Z,57.34
2016-08-16T07:50:52.687Z,57.24
2016-08-16T07:51:52.666Z,56.27
2016-08-16T07:52:52.650Z,56.27
2016-08-16T07:53:52.636Z,56.76
2016-08-16T07:54:52.621Z,56.85
2016-08-16T07:55:52.601Z,56.49
2016-08-16T07:56:52.588Z,56.69
2016-08-16T07:57:52.572Z,56.98
2016-08-16T07:58:52.551Z,56.3
2016-08-16T07:59:52.543Z,56.49
2016-08-16T08:00:52.525Z,56.88
2016-08-16T08:01:52.519Z,57.07
2016-08-16T08:02:52.491Z,55.92
2016-08-16T08:03:52.473Z,56.98
2016-08-16T08:04:52.452Z,56.69
2016-08-16T08:05:52.445Z,56.49
2016-08-16T08:06:52.418Z,56.33
2016-08-16T08:07:52.404Z,56.52
2016-08-16T08:08:52.386Z,56.49
2016-08-16T08:09:52.372Z,56.49
2016-08-16T08:10:52.349Z,56.59
2016-08-16T08:11:52.341Z,56.91
2016-08-16T08:12:52.333Z,56.79
2016-08-16T08:13:52.304Z,57.37
2016-08-16T08:14:52.291Z,56.88
2016-08-16T08:15:52.266Z,56.79
2016-08-16T08:16:52.253Z,56.88
2016-08-16T08:17:52.238Z,56.79
2016-08-16T08:18:52.237Z,56.98
2016-08-16T08:19:52.214Z,56.88
2016-08-16T08:20:52.196Z,56.81
2016-08-16T08:21:52.175Z,56.79
2016-08-16T08:22:52.175Z,56.59
2016-08-16T08:23:52.142Z,56.59
2016-08-16T08:24:51.427Z,56.69
2016-08-16T08:25:52.110Z,56.72
2016-08-16T08:26:52.092Z,56.3
2016-08-16T08:27:52.073Z,56.49
2016-08-16T08:28:52.057Z,56.52
2016-08-16T08:29:52.049Z,56.3
2016-08-16T08:30:52.035Z,56.59
2016-08-16T08:31:52.009Z,56.49
2016-08-16T08:32:51.996Z,56.52
2016-08-16T08:33:51.974Z,56.52
2016-08-16T08:34:51.964Z,56.49
2016-08-16T08:35:51.944Z,56.52
2016-08-16T08:36:51.931Z,56.98
2016-08-16T08:37:51.203Z,57.01
2016-08-16T08:38:51.904Z,56.88
2016-08-16T08:39:51.877Z,56.91
2016-08-16T08:40:51.866Z,56.98
2016-08-16T08:41:51.846Z,57.29
2016-08-16T08:42:51.827Z,57.2
2016-08-16T08:43:51.815Z,57.27
2016-08-16T08:44:51.799Z,56.91
2016-08-16T08:45:51.779Z,57.68
2016-08-16T08:46:51.777Z,57.56
2016-08-16T08:47:51.751Z,57.59
2016-08-16T08:48:51.730Z,57.59
2016-08-16T08:49:51.722Z,57.46
2016-08-16T08:50:51.697Z,57.68
2016-08-16T08:51:51.686Z,57.65
2016-08-16T08:52:51.668Z,57.37
2016-08-16T08:53:51.648Z,57.37
2016-08-16T08:54:51.635Z,58.36
2016-08-16T08:55:51.615Z,57.97
2016-08-16T08:56:51.605Z,58.23
2016-08-16T08:57:51.580Z,58.07
2016-08-16T08:58:51.571Z,57.97
2016-08-16T08:59:51.550Z,57.87
2016-08-16T09:00:51.541Z,58.14
2016-08-16T09:01:51.516Z,58.17
2016-08-16T09:02:51.525Z,56.98
2016-08-16T09:03:51.490Z,56.4
2016-08-16T09:04:51.476Z,56.88
2016-08-16T09:05:51.455Z,56.49
2016-08-16T09:06:51.440Z,57.85
2016-08-16T09:07:51.426Z,57.56
2016-08-16T09:08:51.407Z,57.17
2016-08-16T09:09:51.390Z,57.07
2016-08-16T09:10:51.371Z,56.98
2016-08-16T09:11:51.357Z,56.98
2016-08-16T09:12:51.340Z,56.49
2016-08-16T09:13:51.337Z,56.72
2016-08-16T09:14:51.306Z,55.85
2016-08-16T09:15:51.297Z,55.63
2016-08-16T09:16:51.277Z,55.73
2016-08-16T09:17:51.262Z,55.82
2016-08-16T09:18:51.249Z,55.73
2016-08-16T09:19:51.231Z,55.73
2016-08-16T09:20:51.212Z,55.85
2016-08-16T09:21:51.198Z,55.63
2016-08-16T09:22:51.186Z,55.85
2016-08-16T09:23:51.161Z,55.66
2016-08-16T09:24:51.148Z,56.14
2016-08-16T09:25:51.132Z,55.63
2016-08-16T09:26:51.129Z,54.69
2016-08-16T09:27:51.098Z,54.66
2016-08-16T09:28:51.085Z,54.47
2016-08-16T09:29:51.069Z,54.18
2016-08-16T09:30:51.048Z,54.28
2016-08-16T09:31:51.038Z,54.09
2016-08-16T09:32:51.025Z,54.47
2016-08-16T09:33:51.025Z,54.47
2016-08-16T09:34:50.272Z,54.96
2016-08-16T09:35:50.975Z,54.57
2016-08-16T09:36:50.953Z,53.89
2016-08-16T09:37:50.938Z,53.61
2016-08-16T09:38:50.921Z,54.38
2016-08-16T09:39:50.901Z,54.18
2016-08-16T09:40:50.888Z,54.57
2016-08-16T09:41:50.870Z,54.86
2016-08-16T09:42:50.860Z,54.47
2016-08-16T09:43:50.839Z,54.57
2016-08-16T09:44:50.832Z,54.57
2016-08-16T09:45:50.809Z,54.76
2016-08-16T09:46:50.786Z,54.96
2016-08-16T09:47:50.772Z,54.18
2016-08-16T09:48:50.047Z,54.86
2016-08-16T09:49:50.742Z,54.66
2016-08-16T09:50:50.727Z,54.38
2016-08-16T09:51:50.716Z,54.38
2016-08-16T09:52:50.696Z,54.18
2016-08-16T09:53:50.677Z,54.47
2016-08-16T09:54:49.949Z,54.38
2016-08-16T09:55:50.645Z,54.57
2016-08-16T09:56:50.625Z,55.05
2016-08-16T09:57:50.608Z,54.86
2016-08-16T09:58:50.591Z,55.15
2016-08-16T09:59:49.864Z,54.47
2016-08-16T10:00:50.560Z,55.05
2016-08-16T10:01:50.550Z,54.57
2016-08-16T10:02:50.541Z,54.47
2016-08-16T10:03:50.520Z,54.47
2016-08-16T10:04:50.495Z,54.09
2016-08-16T10:05:50.478Z,53.7
2016-08-16T10:06:49.756Z,53.99
2016-08-16T10:07:50.443Z,54.57
2016-08-16T10:08:50.431Z,53.51
2016-08-16T10:09:50.414Z,54.38
2016-08-16T10:10:50.392Z,53.51
2016-08-16T10:11:49.760Z,54.57
2016-08-16T10:12:50.370Z,54.38
2016-08-16T10:13:50.350Z,54.18
2016-08-16T10:14:50.332Z,54.47
2016-08-16T10:15:50.312Z,54.18
2016-08-16T10:16:50.302Z,54.5
2016-08-16T10:17:49.576Z,54.38
2016-08-16T10:18:50.267Z,53.63
2016-08-16T10:19:50.252Z,54.47
2016-08-16T10:20:50.237Z,54.4
2016-08-16T10:21:50.209Z,54.66
2016-08-16T10:22:50.204Z,54.57
2016-08-16T10:23:49.478Z,53.53
2016-08-16T10:24:50.172Z,53.8
2016-08-16T10:25:50.150Z,53.44
2016-08-16T10:26:50.137Z,53.51
2016-08-16T10:27:50.116Z,53.15
2016-08-16T10:28:50.106Z,53.34
2016-08-16T10:29:50.085Z,52.83
2016-08-16T10:30:50.123Z,53.51
2016-08-16T10:31:50.053Z,52.95
2016-08-16T10:32:50.033Z,53.61
2016-08-16T10:33:50.022Z,53.73
2016-08-16T10:34:50.005Z,53.53
2016-08-16T10:35:49.986Z,53.73
2016-08-16T10:36:49.973Z,53.63
2016-08-16T10:37:49.958Z,53.15
2016-08-16T10:38:49.941Z,53.44
2016-08-16T10:39:49.927Z,53.83
2016-08-16T10:40:49.904Z,53.53
2016-08-16T10:41:49.889Z,53.34
2016-08-16T10:42:49.873Z,53.34
2016-08-16T10:43:49.854Z,53.05
2016-08-16T10:44:49.843Z,53.53
2016-08-16T10:45:49.826Z,53.15
2016-08-16T10:46:49.814Z,51.99
2016-08-16T10:47:49.793Z,52.09
2016-08-16T10:48:49.779Z,52.28
2016-08-16T10:49:49.763Z,53.25
2016-08-16T10:50:49.744Z,52.28
2016-08-16T10:51:49.727Z,51.41
2016-08-16T10:52:49.711Z,51.8
2016-08-16T10:53:49.691Z,52.19
2016-08-16T10:54:49.680Z,52.86
2016-08-16T10:55:49.666Z,51.8
2016-08-16T10:56:49.642Z,50.64
2016-08-16T10:57:49.637Z,50.26
2016-08-16T10:58:49.616Z,50.84
2016-08-16T10:59:49.599Z,51.61
2016-08-16T11:00:48.871Z,52.09
2016-08-16T11:01:49.560Z,51.99
2016-08-16T11:02:49.547Z,51.7
2016-08-16T11:03:49.542Z,51.99
2016-08-16T11:04:49.523Z,51.22
2016-08-16T11:05:49.498Z,51.8
2016-08-16T11:06:49.493Z,52.37
2016-08-16T11:08:49.453Z,51.89
2016-08-16T11:09:48.727Z,51.89
2016-08-16T11:10:49.414Z,52.19
2016-08-16T11:11:49.396Z,52.19
2016-08-16T11:12:49.384Z,51.8
2016-08-16T11:13:49.369Z,51.99
2016-08-16T11:14:49.354Z,51.41
2016-08-16T11:15:49.333Z,51.03
2016-08-16T11:16:49.316Z,51.03
2016-08-16T11:17:49.304Z,51.41
2016-08-16T11:18:49.284Z,51.61
2016-08-16T11:19:48.558Z,51.61
2016-08-16T11:20:49.255Z,51.12
2016-08-16T11:21:49.242Z,51.41
2016-08-16T11:22:49.234Z,50.64
2016-08-16T11:23:49.206Z,51.03
2016-08-16T11:24:49.190Z,50.45
2016-08-16T11:25:49.174Z,50.84
2016-08-16T11:26:49.154Z,50.64
2016-08-16T11:27:49.136Z,50.54
2016-08-16T11:28:49.123Z,50.74
2016-08-16T11:29:49.106Z,50.45
2016-08-16T11:30:49.092Z,50.64
2016-08-16T11:31:49.075Z,50.26
2016-08-16T11:32:49.066Z,50.93
2016-08-16T11:33:49.041Z,50.45
2016-08-16T11:34:49.029Z,50.26
2016-08-16T11:35:49.006Z,50.26
2016-08-16T11:36:48.993Z,50.06
2016-08-16T11:37:48.984Z,50.84
2016-08-16T11:38:48.962Z,50.45
2016-08-16T11:39:48.946Z,50.26
2016-08-16T11:40:48.927Z,50.54
2016-08-16T11:41:48.925Z,50.74
2016-08-16T11:42:48.894Z,49.77
2016-08-16T11:43:48.169Z,50.54
2016-08-16T11:44:48.864Z,50.64
2016-08-16T11:45:48.847Z,50.64
2016-08-16T11:46:48.844Z,50.35
2016-08-16T11:47:48.808Z,50.64
2016-08-16T11:48:48.088Z,50.64
2016-08-16T11:49:48.784Z,50.45
2016-08-16T11:50:48.764Z,50.74
2016-08-16T11:51:48.752Z,50.35
2016-08-16T11:52:48.027Z,50.16
2016-08-16T11:53:48.710Z,49.96
2016-08-16T11:54:48.709Z,50.93
2016-08-16T11:55:48.683Z,50.81
2016-08-16T11:56:48.668Z,50.74
2016-08-16T11:57:48.650Z,50.54
2016-08-16T11:58:48.633Z,50.64
2016-08-16T11:59:48.614Z,50.26
2016-08-16T12:00:48.609Z,49.96
2016-08-16T12:01:48.582Z,49.87
2016-08-16T12:02:48.570Z,50.32
2016-08-16T12:03:48.556Z,50.54
2016-08-16T12:04:48.546Z,50.42
2016-08-16T12:05:48.525Z,50.62
2016-08-16T12:06:48.502Z,50.45
2016-08-16T12:07:48.483Z,49.96
2016-08-16T12:08:47.758Z,49.96
2016-08-16T12:09:48.454Z,50.06
2016-08-16T12:10:47.731Z,50.16
2016-08-16T12:11:48.421Z,49.39
2016-08-16T12:12:48.404Z,49.1
2016-08-16T12:13:47.680Z,49
2016-08-16T12:14:48.376Z,48.81
2016-08-16T12:15:48.358Z,49.39
2016-08-16T12:16:48.337Z,49.58
2016-08-16T12:17:48.325Z,49.29
2016-08-16T12:18:48.305Z,49.39
2016-08-16T12:19:48.289Z,49.29
2016-08-16T12:20:48.276Z,49.77
2016-08-16T12:21:48.257Z,49.68
2016-08-16T12:22:48.238Z,49.68
2016-08-16T12:23:48.227Z,50.06
2016-08-16T12:24:48.207Z,49.68
2016-08-16T12:25:47.483Z,49.77
2016-08-16T12:26:48.183Z,49.68
2016-08-16T12:27:48.167Z,49.87
2016-08-16T12:28:48.148Z,49.48
2016-08-16T12:29:48.128Z,49.68
2016-08-16T12:30:48.112Z,49.58
2016-08-16T12:31:48.105Z,49.29
2016-08-16T12:32:48.082Z,49.1
2016-08-16T12:33:48.063Z,49.1
2016-08-16T12:34:48.057Z,49
2016-08-16T12:35:48.029Z,48.61
2016-08-16T12:36:48.016Z,48.52
2016-08-16T12:37:47.292Z,48.61
2016-08-16T12:38:47.981Z,48.61
2016-08-16T12:39:47.978Z,48.61
2016-08-16T12:40:47.959Z,48.52
2016-08-16T12:41:47.934Z,48.61
2016-08-16T12:42:47.913Z,48.61
2016-08-16T12:43:47.905Z,48.61
2016-08-16T12:44:47.886Z,48.52
2016-08-16T12:45:47.884Z,47.85
2016-08-16T12:46:47.850Z,47.87
2016-08-16T12:47:47.838Z,47.96
2016-08-16T12:48:47.818Z,48.06
2016-08-16T12:49:47.802Z,48.35
2016-08-16T12:50:47.787Z,48.64
2016-08-16T12:51:47.056Z,48.74
2016-08-16T12:52:47.757Z,48.35
2016-08-16T12:53:47.030Z,47.87
2016-08-16T12:54:47.716Z,47.87
2016-08-16T12:55:47.703Z,48.64